Buda, Illinois
Current Conditions -  °F | °C
As of 12:15 PM on Wednesday 28 Jan 2015 (Local Time) from KC75 Reporting Station
Clear Clear  
Wind Chill: 24°   Ceiling: Unl
Heat Index: 33°   Visibility: 10mi
Dew Point: 24°   Wind: 13mph
Humidity: 69%   Direction: 150°SSE
Pressure: 30.12"   Gusts: 20mph
Location:  41.33°N, 89.68°W
Report Text: KC75 281815Z AUTO 15011G17KT 10SM CLR 01/M04 A3012 RMK AO2 T00081043
Loading
Personal Weather Stations






























Interactive Weather Map New forecast layout! Learn more

10-Day Weather Forecast

Advertisements
Track Severe Weather on mobile